Time;durP1;ratioP1;P1;durP2;ratioP2;P2;SDS_P1;SDS_P2;PMS_P1;PMS_P2;Temp;Humidity;BMP_temperature;BMP_pressure;BME280_temperature;BME280_humidity;BME280_pressure;Samples;Min_cycle;Max_cycle;Signal;HPM_P1;HPM_P2
2022/07/18 00:01:35;;;;;;;4.85;1.90;;;;;;;14.85;100.00;101444.13;5048527;28;20033;-47
2022/07/18 00:04:01;;;;;;;5.63;2.33;;;;;;;14.74;100.00;101450.78;5058258;28;20036;-47
2022/07/18 00:06:26;;;;;;;2.78;2.13;;;;;;;14.61;100.00;101448.84;5050718;28;20314;-49
2022/07/18 00:08:52;;;;;;;2.10;1.63;;;;;;;14.53;100.00;101441.84;5056757;28;20029;-51
2022/07/18 00:11:18;;;;;;;5.97;1.83;;;;;;;14.57;100.00;101447.63;5061618;28;20025;-49
2022/07/18 00:13:43;;;;;;;4.45;2.42;;;;;;;14.58;100.00;101447.41;5058170;28;20084;-51
2022/07/18 00:16:09;;;;;;;3.55;2.17;;;;;;;14.67;100.00;101447.28;5033364;28;20436;-48
2022/07/18 00:18:34;;;;;;;2.13;1.92;;;;;;;14.74;100.00;101429.44;5052092;28;20109;-50
2022/07/18 00:21:00;;;;;;;5.63;2.13;;;;;;;14.81;100.00;101430.31;5056319;28;20426;-50
2022/07/18 00:23:25;;;;;;;5.07;2.42;;;;;;;14.82;100.00;101418.63;5056895;28;20017;-49
2022/07/18 00:25:50;;;;;;;3.08;1.38;;;;;;;14.77;100.00;101423.75;5049352;28;20055;-53
2022/07/18 00:28:16;;;;;;;2.65;1.85;;;;;;;14.64;100.00;101432.47;5054376;28;20033;-49
2022/07/18 00:30:42;;;;;;;3.35;1.85;;;;;;;14.53;100.00;101436.50;5059933;28;20093;-49
2022/07/18 00:33:07;;;;;;;3.90;2.30;;;;;;;14.39;100.00;101424.84;5036277;28;20025;-51
2022/07/18 00:35:33;;;;;;;2.35;2.03;;;;;;;14.39;100.00;101424.84;5056346;28;20043;-49
2022/07/18 00:37:58;;;;;;;4.53;2.40;;;;;;;14.42;100.00;101426.31;5053164;28;20033;-46
2022/07/18 00:40:24;;;;;;;3.28;2.20;;;;;;;14.44;100.00;101424.28;5063967;28;20181;-51
2022/07/18 00:42:49;;;;;;;2.55;1.77;;;;;;;14.42;100.00;101431.66;5056473;28;20414;-50
2022/07/18 00:45:15;;;;;;;2.53;1.90;;;;;;;14.40;100.00;101433.69;5065008;28;20060;-49
2022/07/18 00:47:41;;;;;;;7.53;2.67;;;;;;;14.32;100.00;101436.50;5051195;28;20541;-47
2022/07/18 00:50:07;;;;;;;5.97;2.92;;;;;;;14.27;100.00;101441.56;5056855;28;20533;-46
2022/07/18 00:52:34;;;;;;;2.30;1.77;;;;;;;14.16;100.00;101441.06;5049157;28;20069;-47
2022/07/18 00:55:00;;;;;;;4.63;2.13;;;;;;;14.07;100.00;101455.56;5065799;28;20026;-51
2022/07/18 00:57:27;;;;;;;3.80;2.35;;;;;;;14.04;100.00;101447.94;5060709;28;20032;-49
2022/07/18 01:02:37;;;;;;;4.18;1.75;;;;;;;14.00;100.00;101445.84;5056631;28;20039;-48
2022/07/18 01:05:03;;;;;;;3.63;1.60;;;;;;;13.88;100.00;101458.84;5061973;28;20342;-48
2022/07/18 01:07:29;;;;;;;3.97;1.85;;;;;;;13.80;100.00;101440.31;5049616;28;20196;-46
2022/07/18 01:09:54;;;;;;;3.90;2.13;;;;;;;13.72;100.00;101444.72;5056368;28;20557;-49
2022/07/18 01:12:19;;;;;;;4.25;2.78;;;;;;;13.66;100.00;101434.84;5063522;28;20016;-49
2022/07/18 01:14:46;;;;;;;3.25;2.03;;;;;;;13.59;100.00;101443.78;5063724;28;20381;-51
2022/07/18 01:17:16;;;;;;;5.88;2.08;;;;;;;13.49;100.00;101442.22;5059554;28;20029;-51
2022/07/18 01:19:42;;;;;;;6.00;2.47;;;;;;;13.44;100.00;101441.13;5061218;28;20025;-47
2022/07/18 01:22:07;;;;;;;4.25;1.83;;;;;;;13.41;100.00;101447.66;5062764;28;20032;-47
2022/07/18 01:24:33;;;;;;;3.33;2.15;;;;;;;13.37;100.00;101442.88;5067064;28;20072;-51
2022/07/18 01:26:58;;;;;;;3.92;2.30;;;;;;;13.30;100.00;101440.97;5069631;28;20022;-48
2022/07/18 01:29:24;;;;;;;4.95;2.38;;;;;;;13.23;100.00;101444.53;5061918;28;20040;-51
2022/07/18 01:31:49;;;;;;;3.58;1.63;;;;;;;13.13;100.00;101444.78;5059720;28;20118;-47
2022/07/18 01:34:14;;;;;;;1.98;1.50;;;;;;;13.05;100.00;101443.06;5055884;28;20036;-48
2022/07/18 01:36:40;;;;;;;2.00;1.80;;;;;;;12.96;100.00;101445.97;5064116;28;20047;-52
2022/07/18 01:39:05;;;;;;;1.60;1.35;;;;;;;12.89;100.00;101445.91;5062901;28;20148;-46
2022/07/18 01:41:30;;;;;;;5.60;2.40;;;;;;;12.91;100.00;101432.41;5053646;28;20366;-50
2022/07/18 01:43:56;;;;;;;2.22;1.92;;;;;;;12.91;100.00;101429.72;5065002;28;20043;-51
2022/07/18 01:46:21;;;;;;;2.38;1.73;;;;;;;12.82;100.00;101432.50;5053031;28;20029;-47
2022/07/18 01:48:46;;;;;;;3.15;2.17;;;;;;;12.73;100.00;101433.59;5052517;28;20036;-47
2022/07/18 01:51:12;;;;;;;5.80;1.77;;;;;;;12.72;100.00;101439.91;5055672;28;20470;-53
2022/07/18 01:53:41;;;;;;;3.35;1.95;;;;;;;12.64;100.00;101437.34;5055426;28;20071;-48
2022/07/18 01:56:07;;;;;;;2.30;1.90;;;;;;;12.56;100.00;101440.06;5059178;28;20047;-48
2022/07/18 01:58:33;;;;;;;4.38;2.75;;;;;;;12.46;100.00;101435.00;5056664;28;20050;-49
2022/07/18 02:00:58;;;;;;;1.90;1.27;;;;;;;12.45;100.00;101433.38;5058542;28;20461;-46
2022/07/18 02:03:24;;;;;;;5.90;2.38;;;;;;;12.47;100.00;101435.81;5058582;28;20421;-46
2022/07/18 02:05:49;;;;;;;3.03;1.60;;;;;;;12.46;100.00;101426.19;5054096;28;20033;-46
2022/07/18 02:08:14;;;;;;;4.45;2.05;;;;;;;12.40;100.00;101433.06;5059360;28;20036;-49
2022/07/18 02:10:40;;;;;;;3.05;1.63;;;;;;;12.38;100.00;101430.56;5058488;28;20033;-48
2022/07/18 02:13:05;;;;;;;6.20;2.17;;;;;;;12.39;100.00;101432.25;5060001;28;20366;-51
2022/07/18 02:15:31;;;;;;;2.53;2.03;;;;;;;12.37;100.00;101436.91;5058473;28;20021;-50
2022/07/18 02:17:57;;;;;;;4.22;2.50;;;;;;;12.32;100.00;101433.16;5062365;28;20063;-50
2022/07/18 02:20:23;;;;;;;3.85;1.70;;;;;;;12.29;100.00;101436.13;5058102;28;20036;-47
2022/07/18 02:22:48;;;;;;;3.63;1.95;;;;;;;12.28;100.00;101435.31;5056584;28;20040;-48
2022/07/18 02:25:13;;;;;;;2.60;1.67;;;;;;;12.26;100.00;101432.00;5059680;28;20028;-49
2022/07/18 02:27:39;;;;;;;3.30;1.77;;;;;;;12.22;100.00;101430.72;5055893;28;20020;-49
2022/07/18 02:30:07;;;;;;;4.15;2.08;;;;;;;12.18;100.00;101434.75;5058751;28;20024;-50
2022/07/18 02:32:34;;;;;;;2.00;1.90;;;;;;;12.13;100.00;101435.28;5060948;28;20040;-51
2022/07/18 02:35:00;;;;;;;2.42;1.30;;;;;;;12.14;100.00;101431.63;5061048;28;20024;-50
2022/07/18 02:37:25;;;;;;;3.53;1.92;;;;;;;12.14;100.00;101430.78;5060350;28;20090;-46
2022/07/18 02:39:50;;;;;;;3.08;1.80;;;;;;;12.14;100.00;101428.97;5057623;28;20131;-47
2022/07/18 02:42:16;;;;;;;2.50;2.15;;;;;;;12.17;100.00;101417.97;5057283;28;20056;-48
2022/07/18 02:44:41;;;;;;;2.55;2.13;;;;;;;12.15;100.00;101425.28;5071669;28;20198;-49
2022/07/18 02:47:06;;;;;;;3.65;2.03;;;;;;;12.09;100.00;101420.69;5054098;28;20021;-48
2022/07/18 02:49:32;;;;;;;2.95;1.33;;;;;;;12.05;100.00;101423.88;5062660;28;20611;-50
2022/07/18 02:51:59;;;;;;;2.90;2.30;;;;;;;12.07;100.00;101419.22;5056324;28;20435;-46
2022/07/18 02:54:27;;;;;;;3.05;1.70;;;;;;;12.09;100.00;101422.53;5060417;28;20033;-53
2022/07/18 02:56:53;;;;;;;4.22;1.45;;;;;;;12.09;100.00;101423.34;5060642;28;20477;-53
2022/07/18 02:59:18;;;;;;;1.45;1.10;;;;;;;12.09;100.00;101415.38;5059997;28;20060;-51
2022/07/18 03:01:44;;;;;;;2.65;1.80;;;;;;;12.08;100.00;101419.06;5062227;28;20032;-49
2022/07/18 03:04:09;;;;;;;3.45;1.58;;;;;;;12.05;100.00;101418.56;5061758;28;20032;-48
2022/07/18 03:06:35;;;;;;;3.50;1.50;;;;;;;11.98;100.00;101419.28;5058313;28;20060;-47
2022/07/18 03:09:00;;;;;;;4.57;1.60;;;;;;;11.96;100.00;101423.94;5065421;28;20039;-50
2022/07/18 03:11:26;;;;;;;4.18;1.73;;;;;;;11.94;100.00;101419.81;5063481;28;20437;-46
2022/07/18 03:13:52;;;;;;;3.50;1.38;;;;;;;11.94;100.00;101419.81;5041587;28;20052;-47
2022/07/18 03:16:17;;;;;;;2.47;1.80;;;;;;;11.95;100.00;101414.31;5061626;28;20119;-48
2022/07/18 03:18:42;;;;;;;3.28;2.25;;;;;;;11.95;100.00;101414.31;5041347;28;20052;-50
2022/07/18 03:21:08;;;;;;;3.03;1.20;;;;;;;11.93;100.00;101415.50;5058136;28;20489;-49
2022/07/18 03:23:33;;;;;;;5.07;1.65;;;;;;;11.92;100.00;101404.03;5053502;28;20055;-47
2022/07/18 03:25:58;;;;;;;3.45;1.80;;;;;;;11.94;100.00;101401.19;5066706;28;20056;-50
2022/07/18 03:28:24;;;;;;;4.22;1.67;;;;;;;11.95;100.00;101395.72;5062938;28;20477;-49
2022/07/18 03:30:49;;;;;;;5.57;2.00;;;;;;;12.01;100.00;101391.53;5038560;28;20103;-48
2022/07/18 03:33:14;;;;;;;2.83;2.10;;;;;;;11.95;100.00;101393.06;5066282;28;21402;-48
2022/07/18 03:35:40;;;;;;;5.47;1.15;;;;;;;11.87;100.00;101390.44;5062758;28;20043;-50
2022/07/18 03:38:05;;;;;;;3.63;2.75;;;;;;;11.78;100.00;101396.81;5065645;28;20024;-47
2022/07/18 03:40:31;;;;;;;5.25;1.75;;;;;;;11.75;100.00;101391.84;5059222;28;20123;-46
2022/07/18 03:42:57;;;;;;;2.67;1.58;;;;;;;11.73;100.00;101391.19;5060356;28;20078;-48
2022/07/18 03:45:22;;;;;;;2.88;1.83;;;;;;;11.66;100.00;101392.88;5050674;28;20442;-49
2022/07/18 03:47:47;;;;;;;2.75;1.42;;;;;;;11.64;100.00;101390.44;5064585;28;20020;-47
2022/07/18 03:50:13;;;;;;;3.95;2.13;;;;;;;11.66;100.00;101387.56;5061001;28;20032;-47
2022/07/18 03:52:38;;;;;;;6.15;2.38;;;;;;;11.67;100.00;101390.06;5054722;28;20440;-48
2022/07/18 03:55:04;;;;;;;2.42;1.88;;;;;;;11.68;100.00;101388.22;5052407;28;20029;-46
2022/07/18 03:57:29;;;;;;;5.70;2.22;;;;;;;11.66;100.00;101392.88;5061250;28;20536;-49
2022/07/18 03:59:55;;;;;;;4.55;2.10;;;;;;;11.66;100.00;101377.78;5059198;28;20205;-48
2022/07/18 04:02:20;;;;;;;2.30;1.83;;;;;;;11.67;100.00;101383.91;5059589;28;20028;-51
2022/07/18 04:04:45;;;;;;;2.60;2.03;;;;;;;11.68;100.00;101370.47;5058084;28;20035;-49
2022/07/18 04:07:11;;;;;;;4.35;1.67;;;;;;;11.68;100.00;101365.16;5048224;28;20028;-48
2022/07/18 04:09:36;;;;;;;3.58;2.00;;;;;;;11.69;100.00;101376.59;5060165;28;20338;-49
2022/07/18 04:12:02;;;;;;;3.53;2.47;;;;;;;11.67;100.00;101362.66;5062727;28;20385;-51
2022/07/18 04:14:27;;;;;;;3.70;1.98;;;;;;;11.66;100.00;101363.66;5064420;28;20048;-47
2022/07/18 04:16:52;;;;;;;4.43;1.80;;;;;;;11.62;100.00;101359.72;5060691;28;20481;-49
2022/07/18 04:19:18;;;;;;;3.63;1.70;;;;;;;11.58;100.00;101364.53;5049854;28;20499;-52
2022/07/18 04:21:43;;;;;;;6.35;2.08;;;;;;;11.56;100.00;101363.88;5065418;28;20028;-50
2022/07/18 04:24:09;;;;;;;4.40;1.83;;;;;;;11.50;100.00;101368.06;5061224;28;20528;-47
2022/07/18 04:26:35;;;;;;;2.05;1.65;;;;;;;11.44;100.00;101366.13;5054418;28;20033;-49
2022/07/18 04:29:00;;;;;;;4.07;2.38;;;;;;;11.44;100.00;101367.97;5050828;28;20051;-51
2022/07/18 04:31:26;;;;;;;4.68;2.90;;;;;;;11.47;100.00;101368.44;5060901;28;20024;-51
2022/07/18 04:33:51;;;;;;;1.80;1.67;;;;;;;11.48;100.00;101371.91;5058619;28;20029;-51
2022/07/18 04:36:18;;;;;;;3.67;2.38;;;;;;;11.53;100.00;101372.22;5061233;28;20546;-48
2022/07/18 04:38:43;;;;;;;1.80;1.67;;;;;;;11.56;100.00;101363.88;5065982;28;20024;-48
2022/07/18 04:41:09;;;;;;;4.40;2.15;;;;;;;11.58;100.00;101360.06;5059623;28;20090;-47
2022/07/18 04:43:34;;;;;;;4.15;2.00;;;;;;;11.65;100.00;101359.38;5065679;28;20028;-46
2022/07/18 04:45:59;;;;;;;4.65;1.83;;;;;;;11.70;100.00;101357.84;5070951;28;20025;-46
2022/07/18 04:48:25;;;;;;;2.80;2.53;;;;;;;11.73;100.00;101359.31;5059757;28;20025;-48
2022/07/18 04:50:50;;;;;;;1.95;1.85;;;;;;;11.72;100.00;101358.50;5064579;28;20051;-48
2022/07/18 04:53:16;;;;;;;3.47;1.52;;;;;;;11.72;100.00;101355.84;5062013;28;20032;-50
2022/07/18 04:55:42;;;;;;;3.55;2.63;;;;;;;11.76;100.00;101350.97;5062264;28;20110;-52
2022/07/18 04:58:08;;;;;;;1.77;1.45;;;;;;;11.77;100.00;101356.13;5067326;28;20393;-47
2022/07/18 05:00:33;;;;;;;3.42;2.05;;;;;;;11.80;100.00;101357.59;5059997;28;20025;-47
2022/07/18 05:02:59;;;;;;;3.05;1.63;;;;;;;11.83;100.00;101362.56;5065439;28;20099;-51
2022/07/18 05:05:26;;;;;;;1.70;1.60;;;;;;;11.85;100.00;101357.91;5050772;28;20389;-47
2022/07/18 05:07:52;;;;;;;3.47;1.88;;;;;;;11.88;100.00;101351.44;5060367;28;20048;-49
2022/07/18 05:10:20;;;;;;;3.55;1.42;;;;;;;11.92;100.00;101356.19;5059808;28;20486;-51
2022/07/18 05:12:49;;;;;;;2.75;1.60;;;;;;;11.97;100.00;101353.81;5056018;28;20099;-47
2022/07/18 05:15:17;;;;;;;4.60;1.55;;;;;;;12.02;100.00;101350.63;5054165;28;20393;-48
2022/07/18 05:17:43;;;;;;;1.85;1.35;;;;;;;12.07;100.00;101355.41;5052656;28;20016;-48
2022/07/18 05:20:13;;;;;;;2.67;1.50;;;;;;;12.08;100.00;101349.09;5061596;28;20028;-48
2022/07/18 05:22:39;;;;;;;4.72;1.88;;;;;;;12.09;100.00;101345.44;5054496;28;20337;-50
2022/07/18 05:25:06;;;;;;;1.65;1.55;;;;;;;12.10;100.00;101344.41;5055037;28;20484;-49
2022/07/18 05:27:31;;;;;;;1.35;0.90;;;;;;;12.11;100.00;101346.91;5038431;28;20217;-46
2022/07/18 05:29:58;;;;;;;3.35;2.03;;;;;;;12.15;100.00;101344.72;5052847;28;20692;-50
2022/07/18 05:32:25;;;;;;;2.28;1.35;;;;;;;12.17;100.00;101350.69;5059551;28;20036;-51
2022/07/18 05:34:50;;;;;;;2.63;1.63;;;;;;;12.21;100.00;101344.00;5063646;28;20040;-46
2022/07/18 05:37:15;;;;;;;4.10;2.13;;;;;;;12.24;100.00;101346.28;5050892;28;20060;-48
2022/07/18 05:39:40;;;;;;;4.88;2.15;;;;;;;12.29;100.00;101349.25;5062606;28;20032;-46
2022/07/18 05:42:06;;;;;;;1.95;1.60;;;;;;;12.35;100.00;101353.00;5064024;28;20048;-48
2022/07/18 05:44:32;;;;;;;4.72;2.10;;;;;;;12.41;100.00;101349.59;5074871;28;20043;-49
2022/07/18 05:46:57;;;;;;;5.32;2.55;;;;;;;12.46;100.00;101346.41;5067727;28;20114;-48
2022/07/18 05:49:22;;;;;;;3.47;1.83;;;;;;;12.53;100.00;101344.69;5074206;28;20029;-50
2022/07/18 05:51:48;;;;;;;7.30;2.03;;;;;;;12.59;100.00;101343.94;5053769;28;20124;-49
2022/07/18 05:54:18;;;;;;;4.13;2.08;;;;;;;12.66;100.00;101344.88;5058886;28;20354;-50
2022/07/18 05:56:45;;;;;;;3.13;1.95;;;;;;;12.76;100.00;101337.44;5062978;28;20362;-50
2022/07/18 05:59:10;;;;;;;4.55;1.67;;;;;;;12.86;100.00;101329.97;5060156;28;20036;-52
2022/07/18 06:01:36;;;;;;;3.28;1.77;;;;;;;12.93;100.00;101327.38;5057072;28;20025;-48
2022/07/18 06:04:01;;;;;;;2.65;1.75;;;;;;;13.03;100.00;101327.94;5055696;28;20017;-49
2022/07/18 06:06:26;;;;;;;7.50;1.80;;;;;;;13.17;100.00;101333.44;5061091;28;20114;-50
2022/07/18 06:08:52;;;;;;;3.67;2.30;;;;;;;13.25;100.00;101331.47;5052587;28;20033;-48
2022/07/18 06:11:17;;;;;;;4.90;1.83;;;;;;;13.34;100.00;101334.06;5059118;28;20037;-49
2022/07/18 06:13:43;;;;;;;5.65;2.08;;;;;;;13.40;100.00;101328.81;5061847;28;20024;-52
2022/07/18 06:16:08;;;;;;;7.82;1.92;;;;;;;13.47;100.00;101324.34;5054292;28;20111;-49
2022/07/18 06:18:37;;;;;;;5.65;1.63;;;;;;;13.55;100.00;101319.91;5058197;28;20049;-48
2022/07/18 06:21:03;;;;;;;7.57;3.28;;;;;;;13.67;100.00;101319.22;5057002;28;20021;-47
2022/07/18 06:23:30;;;;;;;6.78;2.42;;;;;;;13.88;100.00;101322.88;5065591;28;20595;-47
2022/07/18 06:25:56;;;;;;;6.28;2.05;;;;;;;14.06;100.00;101311.75;5059562;28;20043;-51
2022/07/18 06:28:22;;;;;;;4.03;2.00;;;;;;;14.20;100.00;101316.19;5062045;28;20029;-47
2022/07/18 06:30:47;;;;;;;6.70;2.33;;;;;;;14.35;100.00;101305.38;5058695;28;20154;-47
2022/07/18 06:33:13;;;;;;;6.18;2.40;;;;;;;14.47;100.00;101303.00;5049802;28;20040;-50
2022/07/18 06:35:39;;;;;;;3.10;1.95;;;;;;;14.63;100.00;101302.69;5057879;28;20028;-48
2022/07/18 06:38:05;;;;;;;8.20;2.80;;;;;;;14.80;100.00;101304.03;5064911;28;20082;-48
2022/07/18 06:40:30;;;;;;;5.55;2.92;;;;;;;14.98;100.00;101300.00;5063878;28;20041;-51
2022/07/18 06:42:56;;;;;;;2.35;2.15;;;;;;;15.19;100.00;101309.72;5057725;28;20031;-49
2022/07/18 06:45:21;;;;;;;3.70;1.27;;;;;;;15.33;100.00;101300.69;5062509;28;20162;-52
2022/07/18 06:47:46;;;;;;;2.50;1.75;;;;;;;15.48;100.00;101293.31;5056627;28;20035;-53
2022/07/18 06:50:14;;;;;;;7.03;1.92;;;;;;;15.69;100.00;101299.53;5054145;28;20555;-52
2022/07/18 06:52:40;;;;;;;4.70;2.33;;;;;;;15.89;100.00;101292.34;5055141;28;20033;-49
2022/07/18 06:55:07;;;;;;;4.47;1.67;;;;;;;16.13;100.00;101295.41;5057050;28;20437;-49
2022/07/18 06:57:32;;;;;;;2.78;1.98;;;;;;;16.32;100.00;101286.53;5061101;28;20556;-51
2022/07/18 06:59:58;;;;;;;7.55;1.45;;;;;;;16.55;100.00;101293.28;5052487;28;20031;-49
2022/07/18 07:02:23;;;;;;;3.17;2.33;;;;;;;16.77;100.00;101293.81;5056067;28;20473;-48
2022/07/18 07:04:49;;;;;;;9.40;2.17;;;;;;;16.90;100.00;101287.59;5044902;28;20185;-51
2022/07/18 07:07:14;;;;;;;2.45;1.38;;;;;;;17.09;100.00;101288.53;5048617;28;20040;-49
2022/07/18 07:09:40;;;;;;;6.80;3.40;;;;;;;17.39;100.00;101292.28;5049048;28;20267;-51
2022/07/18 07:12:05;;;;;;;3.88;2.28;;;;;;;17.73;100.00;101287.47;5058867;28;20362;-49
2022/07/18 07:14:31;;;;;;;2.85;1.85;;;;;;;18.09;100.00;101281.41;5057613;28;20032;-51
2022/07/18 07:16:56;;;;;;;5.50;2.85;;;;;;;18.42;100.00;101279.44;5047572;28;20047;-48
2022/07/18 07:19:21;;;;;;;3.20;2.58;;;;;;;18.65;100.00;101282.28;5056769;28;20024;-49
2022/07/18 07:21:47;;;;;;;5.30;2.90;;;;;;;18.87;100.00;101273.75;5052036;28;20383;-50
2022/07/18 07:24:12;;;;;;;5.35;1.98;;;;;;;19.04;100.00;101268.59;5048712;28;20059;-53
2022/07/18 07:26:37;;;;;;;5.13;1.70;;;;;;;19.29;100.00;101276.50;5040858;28;20258;-52
2022/07/18 07:29:03;;;;;;;2.92;1.98;;;;;;;19.56;100.00;101264.28;5043230;28;20036;-49
2022/07/18 07:31:28;;;;;;;5.43;1.85;;;;;;;19.92;100.00;101267.03;5041532;28;20589;-48
2022/07/18 07:33:54;;;;;;;3.92;2.33;;;;;;;20.22;100.00;101261.53;5042430;28;20029;-50
2022/07/18 07:36:21;;;;;;;2.75;1.30;;;;;;;20.55;100.00;101265.44;5053029;28;20037;-48
2022/07/18 07:38:46;;;;;;;2.58;1.42;;;;;;;20.77;100.00;101252.97;5047910;28;21322;-50
2022/07/18 07:41:13;;;;;;;5.90;1.25;;;;;;;21.08;100.00;101259.75;5046698;28;20445;-49
2022/07/18 07:43:39;;;;;;;5.85;1.20;;;;;;;21.31;100.00;101263.41;5043002;28;20166;-52
2022/07/18 07:46:04;;;;;;;2.28;1.17;;;;;;;21.52;100.00;101249.22;5052225;28;20088;-50
2022/07/18 07:48:30;;;;;;;1.70;1.15;;;;;;;21.79;100.00;101253.97;5050375;28;20040;-51
2022/07/18 07:50:55;;;;;;;3.90;1.55;;;;;;;21.95;100.00;101253.09;5047643;28;20025;-50
2022/07/18 07:53:21;;;;;;;1.13;1.02;;;;;;;22.07;100.00;101249.47;5052089;28;20096;-52
2022/07/18 07:55:46;;;;;;;3.10;1.08;;;;;;;22.20;100.00;101247.28;5050884;28;20080;-52
2022/07/18 07:58:12;;;;;;;4.95;1.83;;;;;;;22.38;100.00;101245.31;5049789;28;20116;-48
2022/07/18 08:00:37;;;;;;;3.80;1.48;;;;;;;22.61;100.00;101241.53;5050323;28;20346;-51
2022/07/18 08:03:06;;;;;;;3.83;1.25;;;;;;;22.81;100.00;101243.66;5036906;28;20797;-51
2022/07/18 08:05:35;;;;;;;6.38;1.20;;;;;;;23.02;100.00;101250.94;5043747;28;20529;-51
2022/07/18 08:08:01;;;;;;;2.53;1.10;;;;;;;23.18;100.00;101245.69;5050513;28;20033;-50
2022/07/18 08:10:27;;;;;;;1.88;0.93;;;;;;;23.32;100.00;101246.91;5052168;28;20540;-52
2022/07/18 08:12:53;;;;;;;3.28;1.33;;;;;;;23.48;100.00;101258.66;5034256;28;20032;-54
2022/07/18 08:15:18;;;;;;;1.98;1.10;;;;;;;23.65;100.00;101243.09;5033532;28;20044;-54
2022/07/18 08:17:44;;;;;;;1.58;0.77;;;;;;;23.73;100.00;101253.47;5051100;28;20032;-52
2022/07/18 08:20:11;;;;;;;3.20;1.30;;;;;;;23.94;100.00;101243.59;5052469;28;20629;-51
2022/07/18 08:22:51;;;;;;;1.98;1.30;;;;;;;24.10;100.00;101249.91;5052345;28;20041;-53
2022/07/18 08:25:18;;;;;;;4.32;1.52;;;;;;;24.22;100.00;101251.59;5054244;28;20051;-51
2022/07/18 08:27:43;;;;;;;4.07;1.73;;;;;;;24.43;100.00;101247.88;5048804;28;20025;-52
2022/07/18 08:30:09;;;;;;;3.80;1.27;;;;;;;24.63;100.00;101246.34;5052531;28;20097;-53
2022/07/18 08:32:35;;;;;;;4.32;1.35;;;;;;;24.79;100.00;101256.16;5052124;28;20427;-50
2022/07/18 08:35:00;;;;;;;2.30;0.80;;;;;;;24.90;100.00;101246.97;5042945;28;20064;-54
2022/07/18 08:37:25;;;;;;;1.30;1.08;;;;;;;25.00;99.55;101246.19;5037620;28;20028;-51
2022/07/18 08:39:51;;;;;;;3.55;1.42;;;;;;;25.17;100.00;101246.78;5052780;28;20123;-51
2022/07/18 08:42:19;;;;;;;2.13;1.15;;;;;;;25.40;98.87;101250.84;5038110;28;20136;-51
2022/07/18 08:44:46;;;;;;;2.65;1.65;;;;;;;25.64;95.92;101239.44;5032912;28;20111;-53
2022/07/18 08:47:13;;;;;;;1.05;0.70;;;;;;;25.67;95.02;101244.31;5053285;28;20033;-48
2022/07/18 08:49:38;;;;;;;2.50;1.17;;;;;;;25.76;92.92;101234.50;5039630;28;20432;-52
2022/07/18 08:52:04;;;;;;;4.15;1.83;;;;;;;25.96;93.88;101232.88;5059177;28;20035;-54
2022/07/18 08:54:30;;;;;;;5.97;1.40;;;;;;;26.18;93.19;101230.63;5057413;28;20044;-49
2022/07/18 08:56:56;;;;;;;4.43;1.65;;;;;;;26.37;91.02;101230.00;5056738;28;20025;-46
2022/07/18 08:59:21;;;;;;;2.85;1.23;;;;;;;26.49;89.97;101227.78;5038729;28;20122;-55
2022/07/18 09:01:46;;;;;;;2.55;1.15;;;;;;;26.59;89.57;101222.34;5059261;28;20474;-55
2022/07/18 09:04:31;;;;;;;1.85;0.95;;;;;;;26.90;87.41;101224.84;5058354;28;20088;-49
2022/07/18 09:06:58;;;;;;;2.65;1.60;;;;;;;27.10;85.86;101213.81;5051042;28;22282;-52
2022/07/18 09:09:23;;;;;;;4.32;1.38;;;;;;;27.25;86.57;101212.09;5056637;28;20073;-55
2022/07/18 09:11:55;;;;;;;5.55;1.33;;;;;;;27.46;84.12;101216.25;5049960;28;20025;-48
2022/07/18 09:14:38;;;;;;;2.58;2.30;;;;;;;27.51;79.23;101212.66;5032812;28;20032;-48
2022/07/18 09:17:07;;;;;;;1.30;1.15;;;;;;;27.65;80.91;101218.25;5054394;28;20040;-54
2022/07/18 09:19:33;;;;;;;2.17;1.20;;;;;;;27.81;80.06;101206.13;5058763;28;20308;-51
2022/07/18 09:22:19;;;;;;;1.80;0.80;;;;;;;27.83;77.18;101204.75;5055489;28;20037;-50
2022/07/18 09:24:50;;;;;;;3.53;1.13;;;;;;;27.91;78.25;101202.50;5055170;28;20398;-54
2022/07/18 09:27:30;;;;;;;1.40;0.88;;;;;;;28.08;75.89;101205.53;5061486;28;20036;-55
2022/07/18 09:30:19;;;;;;;2.72;1.58;;;;;;;28.39;74.65;101205.16;5057587;28;20037;-54
2022/07/18 09:33:06;;;;;;;2.33;1.05;;;;;;;28.53;73.98;101197.09;5062328;28;20512;-52
2022/07/18 09:35:33;;;;;;;2.65;1.08;;;;;;;28.71;73.73;101199.00;5058526;28;20111;-53
2022/07/18 09:38:05;;;;;;;5.15;0.90;;;;;;;28.93;71.37;101193.72;5054198;28;20067;-52
2022/07/18 09:40:33;;;;;;;4.13;1.10;;;;;;;29.07;70.71;101191.09;5058036;28;20062;-54
2022/07/18 09:43:01;;;;;;;3.60;1.10;;;;;;;29.19;71.59;101198.81;5056112;28;20093;-53
2022/07/18 09:45:38;;;;;;;1.10;1.00;;;;;;;29.27;67.69;101189.13;5060240;28;20032;-53
2022/07/18 09:48:06;;;;;;;2.47;1.38;;;;;;;29.35;69.28;101180.22;5055802;28;20036;-53
2022/07/18 09:50:34;;;;;;;2.53;0.90;;;;;;;29.46;66.77;101189.06;5057103;28;20047;-53
2022/07/18 09:53:06;;;;;;;3.28;1.20;;;;;;;29.58;65.43;101183.91;5056462;28;20040;-52
2022/07/18 09:55:32;;;;;;;5.35;0.80;;;;;;;29.76;65.55;101185.75;5053732;28;20036;-56
2022/07/18 09:58:05;;;;;;;1.77;1.20;;;;;;;29.77;65.82;101187.41;5057301;28;20029;-48
2022/07/18 10:00:35;;;;;;;2.55;1.00;;;;;;;29.99;64.34;101181.22;5053779;28;20442;-56
2022/07/18 10:03:02;;;;;;;0.60;0.47;;;;;;;30.07;63.28;101176.94;5056193;28;20386;-55
2022/07/18 10:05:30;;;;;;;1.90;0.80;;;;;;;30.15;63.19;101175.41;5059835;28;20062;-53
2022/07/18 10:07:56;;;;;;;1.33;0.63;;;;;;;30.39;63.62;101186.16;5034999;28;20445;-52
2022/07/18 10:10:24;;;;;;;1.98;0.98;;;;;;;30.56;62.87;101183.56;5056453;28;20036;-54
2022/07/18 10:12:53;;;;;;;3.22;1.02;;;;;;;30.80;61.49;101183.28;5050279;28;20031;-55
2022/07/18 10:15:21;;;;;;;2.78;0.82;;;;;;;30.78;60.67;101179.25;5054723;28;20032;-55
2022/07/18 10:17:46;;;;;;;4.72;0.95;;;;;;;31.00;61.50;101176.50;5053948;28;20354;-48
2022/07/18 10:20:12;;;;;;;1.67;0.70;;;;;;;31.19;60.02;101172.78;5055424;28;20029;-54
2022/07/18 10:22:43;;;;;;;2.30;0.95;;;;;;;31.25;57.44;101174.25;5053517;28;20551;-55
2022/07/18 10:25:11;;;;;;;1.60;0.75;;;;;;;31.07;57.41;101176.09;5050785;28;21282;-50
2022/07/18 10:28:05;;;;;;;0.82;0.65;;;;;;;31.33;55.96;101170.75;5055137;28;20574;-49
2022/07/18 10:30:46;;;;;;;3.40;0.50;;;;;;;31.57;58.07;101175.06;5052457;28;20036;-52
2022/07/18 10:33:29;;;;;;;;;;;;;;;31.70;54.98;101171.41;5052220;28;20032;-52
2022/07/18 10:36:01;;;;;;;2.55;0.60;;;;;;;31.83;56.44;101167.78;5051344;28;19920;-51
2022/07/18 10:38:27;;;;;;;1.38;1.05;;;;;;;31.91;55.21;101164.25;5050346;28;20037;-56
2022/07/18 10:41:07;;;;;;;3.92;1.10;;;;;;;32.03;54.10;101163.63;5055810;28;20124;-54
2022/07/18 10:43:36;;;;;;;2.10;0.82;;;;;;;32.14;54.78;101161.38;5057525;28;20136;-55
2022/07/18 10:46:02;;;;;;;2.10;0.77;;;;;;;32.24;52.86;101166.56;5054925;28;20552;-51
2022/07/18 10:48:47;;;;;;;2.95;1.27;;;;;;;32.27;51.52;101165.94;5037374;28;20186;-54
2022/07/18 10:51:15;;;;;;;5.13;1.80;;;;;;;32.42;52.72;101167.38;5053462;28;20039;-48
2022/07/18 10:53:53;;;;;;;5.20;1.40;;;;;;;32.62;51.62;101167.91;5054662;28;20893;-58
2022/07/18 10:56:19;;;;;;;3.08;1.60;;;;;;;32.73;51.30;101161.75;5055480;28;20040;-52
2022/07/18 10:58:45;;;;;;;2.63;1.30;;;;;;;32.80;51.15;101155.78;5049224;28;20561;-49
2022/07/18 11:01:16;;;;;;;3.33;1.83;;;;;;;32.79;49.23;101149.50;5057160;28;20119;-56
2022/07/18 11:03:42;;;;;;;1.45;1.20;;;;;;;32.90;50.06;101149.94;5055639;28;20075;-56
2022/07/18 11:06:08;;;;;;;1.73;1.58;;;;;;;33.12;49.78;101146.22;5056135;28;20033;-51
2022/07/18 11:08:33;;;;;;;1.30;1.25;;;;;;;33.23;48.18;101144.72;5057531;28;20039;-52
2022/07/18 11:11:02;;;;;;;1.70;1.60;;;;;;;33.32;48.17;101144.69;5053998;28;20039;-51
2022/07/18 11:13:27;;;;;;;1.40;1.40;;;;;;;33.43;47.29;101142.38;5049056;28;20125;-53
2022/07/18 11:15:53;;;;;;;3.53;1.58;;;;;;;33.31;46.99;101136.78;5034665;28;20036;-54
2022/07/18 11:18:18;;;;;;;4.57;1.73;;;;;;;33.41;46.46;101136.41;5036635;28;20412;-56
2022/07/18 11:20:44;;;;;;;4.47;1.42;;;;;;;33.62;47.20;101145.56;5055585;28;20028;-50